Time;durP1;ratioP1;P1;durP2;ratioP2;P2;SDS_P1;SDS_P2;PMS_P1;PMS_P2;Temp;Humidity;BMP_temperature;BMP_pressure;BME280_temperature;BME280_humidity;BME280_pressure;Samples;Min_cycle;Max_cycle;Signal;HPM_P1;HPM_P2
2021/03/11 00:02:04;;;;;;;2.88;1.45;;;22.90;43.90;;;;;;5015079;28;20131;-63
2021/03/11 00:04:30;;;;;;;2.72;1.42;;;22.90;43.90;;;;;;5028520;28;20021;-62
2021/03/11 00:06:55;;;;;;;2.47;1.35;;;22.90;43.90;;;;;;5030180;28;20029;-66
2021/03/11 00:09:21;;;;;;;1.95;1.33;;;22.90;43.90;;;;;;5029159;28;20025;-64
2021/03/11 00:11:47;;;;;;;2.08;1.20;;;22.80;43.90;;;;;;5030255;28;20139;-63
2021/03/11 00:14:12;;;;;;;2.33;1.23;;;22.80;43.90;;;;;;5026587;28;20369;-63
2021/03/11 00:16:38;;;;;;;3.13;1.60;;;22.80;43.90;;;;;;5027790;28;20078;-63
2021/03/11 00:19:04;;;;;;;2.40;1.30;;;22.80;43.90;;;;;;5028490;28;20357;-65
2021/03/11 00:21:29;;;;;;;2.80;1.40;;;22.80;43.90;;;;;;5029079;28;20044;-66
2021/03/11 00:23:55;;;;;;;2.05;1.20;;;22.80;43.90;;;;;;5028570;28;20147;-64
2021/03/11 00:26:20;;;;;;;2.15;1.30;;;22.70;43.80;;;;;;5029077;28;20432;-64
2021/03/11 00:28:46;;;;;;;1.77;1.25;;;22.70;43.80;;;;;;5028448;28;20106;-64
2021/03/11 00:31:11;;;;;;;2.33;1.38;;;22.70;44.40;;;;;;5025345;28;20433;-64
2021/03/11 00:33:37;;;;;;;2.50;1.30;;;22.70;43.80;;;;;;5028730;28;20044;-64
2021/03/11 00:36:03;;;;;;;4.03;1.30;;;22.80;43.90;;;;;;5020273;28;20091;-63
2021/03/11 00:38:29;;;;;;;3.05;1.35;;;22.70;43.80;;;;;;5044876;28;20140;-63
2021/03/11 00:40:54;;;;;;;2.80;1.30;;;22.70;44.40;;;;;;5029495;28;20120;-65
2021/03/11 00:43:20;;;;;;;2.47;1.30;;;22.70;43.90;;;;;;5020499;28;20040;-62
2021/03/11 00:45:47;;;;;;;2.67;1.42;;;22.70;43.90;;;;;;5026611;28;20447;-63
2021/03/11 00:48:13;;;;;;;2.90;1.50;;;22.70;43.80;;;;;;5028148;28;20018;-63
2021/03/11 00:50:39;;;;;;;3.05;1.45;;;22.70;44.00;;;;;;5021651;28;20049;-64
2021/03/11 00:53:05;;;;;;;2.15;1.20;;;22.70;43.90;;;;;;5026898;28;20029;-65
2021/03/11 00:55:31;;;;;;;1.85;1.20;;;22.70;43.90;;;;;;5028127;28;20049;-64
2021/03/11 00:57:56;;;;;;;2.88;1.55;;;22.60;43.80;;;;;;5028472;28;20029;-63
2021/03/11 01:00:22;;;;;;;2.40;1.40;;;22.60;43.80;;;;;;5025960;28;20100;-63
2021/03/11 01:02:49;;;;;;;2.60;1.33;;;22.60;43.80;;;;;;5031076;28;20029;-65
2021/03/11 01:05:26;;;;;;;2.15;1.30;;;22.60;43.80;;;;;;5035057;28;20108;-68
2021/03/11 01:07:52;;;;;;;2.40;1.40;;;22.60;43.80;;;;;;5028785;28;20038;-63
2021/03/11 01:10:17;;;;;;;2.60;1.60;;;22.60;43.90;;;;;;5027886;28;20483;-62
2021/03/11 01:12:43;;;;;;;2.90;1.30;;;22.60;43.80;;;;;;5019410;28;20042;-64
2021/03/11 01:15:09;;;;;;;3.10;1.38;;;22.60;43.80;;;;;;5035337;28;20120;-63
2021/03/11 01:17:36;;;;;;;2.30;1.40;;;22.50;43.80;;;;;;5028667;28;20037;-63
2021/03/11 01:20:06;;;;;;;1.98;1.20;;;22.60;43.80;;;;;;5028121;28;20404;-66
2021/03/11 01:22:31;;;;;;;1.95;1.20;;;22.60;43.90;;;;;;5027320;28;20041;-64
2021/03/11 01:24:57;;;;;;;2.53;1.52;;;22.50;43.80;;;;;;5027049;28;20033;-65
2021/03/11 01:27:23;;;;;;;2.95;1.38;;;22.50;43.80;;;;;;5027939;28;20064;-64
2021/03/11 01:29:48;;;;;;;1.90;1.20;;;22.50;43.90;;;;;;5026370;28;20053;-65
2021/03/11 01:32:14;;;;;;;1.88;1.10;;;22.50;44.10;;;;;;5027640;28;20045;-63
2021/03/11 01:34:39;;;;;;;2.28;1.30;;;22.50;43.80;;;;;;5028354;28;20056;-67
2021/03/11 01:37:05;;;;;;;2.35;1.20;;;22.50;43.90;;;;;;5027373;28;20542;-62
2021/03/11 01:39:30;;;;;;;1.60;1.10;;;22.50;43.80;;;;;;5027591;28;20033;-65
2021/03/11 01:41:56;;;;;;;2.75;1.40;;;22.50;44.40;;;;;;5026378;28;20322;-63
2021/03/11 01:44:22;;;;;;;1.42;1.10;;;22.40;43.80;;;;;;5011909;28;20055;-64
2021/03/11 01:46:47;;;;;;;2.10;1.25;;;22.40;43.80;;;;;;5027436;28;20754;-63
2021/03/11 01:49:13;;;;;;;2.22;1.30;;;22.40;43.80;;;;;;5027521;28;20108;-63
2021/03/11 01:51:39;;;;;;;1.85;1.13;;;22.40;43.80;;;;;;5028087;28;20025;-63
2021/03/11 01:54:05;;;;;;;2.75;1.40;;;22.40;43.80;;;;;;5028123;28;20033;-65
2021/03/11 01:56:30;;;;;;;1.80;1.20;;;22.40;43.80;;;;;;5028231;28;20033;-64
2021/03/11 01:58:57;;;;;;;2.08;1.30;;;22.40;43.80;;;;;;5025611;28;20045;-62
2021/03/11 02:01:22;;;;;;;2.85;1.30;;;22.40;43.90;;;;;;5023827;28;20388;-63
2021/03/11 02:03:48;;;;;;;1.52;1.10;;;22.40;44.00;;;;;;5027402;28;20103;-63
2021/03/11 02:06:13;;;;;;;2.15;1.30;;;22.40;43.90;;;;;;5022647;28;20036;-63
2021/03/11 02:08:39;;;;;;;2.63;1.30;;;22.40;43.90;;;;;;5027193;28;20076;-63
2021/03/11 02:11:10;;;;;;;2.22;1.30;;;22.40;43.90;;;;;;5026686;28;20025;-63
2021/03/11 02:13:49;;;;;;;2.42;1.70;;;22.40;43.90;;;;;;5025037;28;20060;-64
2021/03/11 02:16:29;;;;;;;2.05;1.40;;;22.40;43.90;;;;;;5026131;28;20091;-66
2021/03/11 02:19:33;;;;;;;1.50;1.20;;;22.30;43.80;;;;;;5026136;28;20041;-63
2021/03/11 02:22:09;;;;;;;1.95;1.30;;;22.30;43.80;;;;;;5025427;28;20060;-66
2021/03/11 02:25:03;;;;;;;2.00;1.25;;;22.30;43.90;;;;;;5027098;28;20030;-64
2021/03/11 02:28:06;;;;;;;2.03;1.25;;;22.30;43.80;;;;;;5022450;28;20017;-65
2021/03/11 02:30:33;;;;;;;2.30;1.27;;;22.30;43.90;;;;;;5024577;28;20082;-62
2021/03/11 02:32:59;;;;;;;2.72;1.30;;;22.30;43.90;;;;;;5027230;28;20034;-64
2021/03/11 02:35:27;;;;;;;2.47;1.40;;;22.30;43.90;;;;;;5026692;28;20079;-63
2021/03/11 02:37:54;;;;;;;2.20;1.27;;;22.30;43.90;;;;;;5026317;28;20026;-64
2021/03/11 02:40:23;;;;;;;2.20;1.30;;;22.30;43.90;;;;;;5025989;28;20124;-64
2021/03/11 02:42:51;;;;;;;1.80;1.20;;;22.30;43.90;;;;;;5024253;28;20124;-65
2021/03/11 02:45:39;;;;;;;3.10;1.23;;;22.30;43.90;;;;;;5025922;28;20030;-62
2021/03/11 02:48:10;;;;;;;1.70;1.17;;;22.20;43.90;;;;;;5015355;28;20129;-67
2021/03/11 02:50:37;;;;;;;2.00;1.30;;;22.20;43.90;;;;;;5027097;28;20440;-65
2021/03/11 02:53:09;;;;;;;1.83;1.20;;;22.20;43.90;;;;;;5041427;28;20491;-64
2021/03/11 02:55:36;;;;;;;2.22;1.20;;;22.20;43.90;;;;;;5024087;28;20033;-64
2021/03/11 02:58:03;;;;;;;2.00;1.27;;;22.20;43.90;;;;;;5022160;28;20476;-65
2021/03/11 03:00:30;;;;;;;2.95;1.40;;;22.20;43.90;;;;;;5024127;28;20045;-64
2021/03/11 03:02:56;;;;;;;1.80;1.20;;;22.20;43.90;;;;;;5027335;28;20388;-65
2021/03/11 03:05:25;;;;;;;2.10;1.23;;;22.20;43.90;;;;;;5025403;28;20102;-63
2021/03/11 03:07:51;;;;;;;2.50;1.30;;;22.20;43.90;;;;;;5026523;28;20124;-65
2021/03/11 03:10:20;;;;;;;1.90;1.30;;;22.20;43.90;;;;;;5025880;28;20513;-66
2021/03/11 03:12:49;;;;;;;1.65;1.10;;;22.20;43.90;;;;;;5022149;28;20473;-66
2021/03/11 03:15:18;;;;;;;2.28;1.33;;;22.20;44.00;;;;;;5024932;28;20045;-63
2021/03/11 03:17:48;;;;;;;2.10;1.23;;;22.20;44.00;;;;;;5026103;28;20112;-64
2021/03/11 03:20:16;;;;;;;2.17;1.20;;;22.10;43.90;;;;;;5026400;28;20377;-63
2021/03/11 03:22:42;;;;;;;1.95;1.30;;;22.10;43.90;;;;;;5025562;28;20041;-62
2021/03/11 03:25:13;;;;;;;2.70;1.17;;;22.10;44.00;;;;;;5024946;28;20061;-65
2021/03/11 03:27:39;;;;;;;1.80;1.25;;;22.10;43.90;;;;;;5026655;28;20655;-64
2021/03/11 03:30:10;;;;;;;1.98;1.25;;;22.10;43.90;;;;;;5020973;28;20038;-64
2021/03/11 03:32:36;;;;;;;1.52;1.08;;;22.10;43.90;;;;;;5022383;28;20515;-65
2021/03/11 03:35:05;;;;;;;1.70;1.27;;;22.10;44.00;;;;;;5023008;28;20041;-63
2021/03/11 03:37:31;;;;;;;1.85;1.30;;;22.10;44.00;;;;;;5035294;28;20402;-64
2021/03/11 03:39:57;;;;;;;2.03;1.20;;;22.10;44.00;;;;;;5041301;28;20038;-63
2021/03/11 03:42:25;;;;;;;1.67;1.20;;;22.10;44.00;;;;;;5026599;28;20044;-64
2021/03/11 03:44:53;;;;;;;1.73;1.30;;;22.10;44.00;;;;;;5024064;28;20392;-63
2021/03/11 03:47:19;;;;;;;2.40;1.27;;;22.10;44.00;;;;;;5024385;28;20036;-63
2021/03/11 03:49:45;;;;;;;1.83;1.25;;;22.10;44.00;;;;;;5027286;28;20033;-64
2021/03/11 03:52:12;;;;;;;1.88;1.30;;;22.10;44.00;;;;;;5024902;28;20519;-63
2021/03/11 03:54:43;;;;;;;2.20;1.40;;;22.00;44.00;;;;;;5034893;28;20060;-67
2021/03/11 03:57:19;;;;;;;1.92;1.10;;;22.10;44.00;;;;;;5020690;28;20075;-63
2021/03/11 03:59:47;;;;;;;1.60;1.20;;;22.00;43.90;;;;;;5025629;28;20064;-63
2021/03/11 04:02:15;;;;;;;1.85;1.25;;;22.00;43.90;;;;;;5024289;28;20654;-63
2021/03/11 04:04:44;;;;;;;1.58;1.10;;;22.00;44.00;;;;;;5029821;28;20101;-65
2021/03/11 04:07:12;;;;;;;1.52;1.15;;;22.00;44.00;;;;;;5030507;28;20468;-63
2021/03/11 04:09:39;;;;;;;1.95;1.20;;;22.00;44.00;;;;;;5030269;28;20037;-67
2021/03/11 04:12:07;;;;;;;1.73;1.35;;;22.00;44.00;;;;;;5028124;28;20714;-63
2021/03/11 04:14:33;;;;;;;1.63;1.20;;;22.00;44.00;;;;;;5027245;28;20028;-64
2021/03/11 04:17:00;;;;;;;1.63;1.10;;;22.00;44.00;;;;;;5018029;28;20425;-65
2021/03/11 04:19:26;;;;;;;1.83;1.23;;;22.00;44.00;;;;;;5025322;28;20025;-62
2021/03/11 04:21:52;;;;;;;1.60;1.20;;;22.00;44.00;;;;;;5028131;28;20388;-63
2021/03/11 04:24:19;;;;;;;1.50;1.00;;;22.00;44.00;;;;;;5028026;28;20106;-62
2021/03/11 04:26:46;;;;;;;1.38;0.95;;;22.00;44.00;;;;;;5022619;28;20029;-63
2021/03/11 04:29:12;;;;;;;1.50;1.00;;;22.00;44.00;;;;;;5012045;28;20456;-63
2021/03/11 04:31:39;;;;;;;1.90;1.30;;;22.00;44.00;;;;;;5022802;28;20046;-64
2021/03/11 04:34:06;;;;;;;1.85;1.20;;;22.00;44.00;;;;;;5024782;28;20025;-64
2021/03/11 04:36:33;;;;;;;1.85;1.10;;;22.00;44.10;;;;;;5026151;28;20056;-63
2021/03/11 04:38:59;;;;;;;1.88;1.20;;;22.00;44.00;;;;;;5028165;28;20151;-67
2021/03/11 04:41:25;;;;;;;1.33;1.00;;;22.00;44.10;;;;;;5028119;28;20115;-62
2021/03/11 04:43:52;;;;;;;1.60;1.10;;;22.00;44.00;;;;;;5026483;28;20025;-64
2021/03/11 04:46:19;;;;;;;1.90;1.20;;;21.90;44.00;;;;;;5026592;28;20879;-64
2021/03/11 04:48:46;;;;;;;1.40;1.02;;;22.00;44.10;;;;;;5027935;28;20044;-63
2021/03/11 04:51:13;;;;;;;1.85;1.20;;;22.00;44.10;;;;;;5024064;28;20029;-63
2021/03/11 04:53:39;;;;;;;1.77;1.20;;;22.00;44.00;;;;;;5027637;28;20072;-63
2021/03/11 04:56:09;;;;;;;2.20;1.10;;;21.90;44.00;;;;;;5027820;28;20029;-62
2021/03/11 04:58:39;;;;;;;1.67;1.10;;;21.90;44.00;;;;;;5025044;28;20539;-62
2021/03/11 05:01:08;;;;;;;;;;;21.90;44.00;;;;;;5025912;28;20076;-62
2021/03/11 05:03:42;;;;;;;1.38;1.00;;;21.90;44.00;;;;;;5042341;28;20022;-64
2021/03/11 05:06:08;;;;;;;1.60;1.02;;;21.90;44.00;;;;;;5026774;28;20025;-64
2021/03/11 05:08:33;;;;;;;1.70;1.10;;;21.90;44.00;;;;;;5029639;28;20396;-63
2021/03/11 05:10:59;;;;;;;2.00;1.25;;;21.90;44.00;;;;;;5042476;28;20025;-64
2021/03/11 05:13:25;;;;;;;1.48;1.00;;;21.90;44.00;;;;;;5025951;28;20049;-66
2021/03/11 05:15:50;;;;;;;1.77;1.20;;;21.90;44.10;;;;;;5025415;28;20325;-62
2021/03/11 05:18:16;;;;;;;2.03;1.30;;;21.90;44.10;;;;;;5029726;28;20037;-63
2021/03/11 05:20:42;;;;;;;1.50;1.00;;;21.90;44.10;;;;;;5023677;28;20038;-63
2021/03/11 05:23:07;;;;;;;1.67;1.10;;;21.90;44.10;;;;;;5027312;28;20333;-63
2021/03/11 05:25:33;;;;;;;1.75;1.17;;;21.90;44.10;;;;;;5027710;28;20017;-64
2021/03/11 05:27:58;;;;;;;1.13;0.90;;;21.90;44.10;;;;;;5028050;28;20018;-63
2021/03/11 05:30:24;;;;;;;1.52;1.10;;;21.90;44.10;;;;;;5026625;28;20484;-65
2021/03/11 05:32:50;;;;;;;1.60;1.00;;;21.90;44.10;;;;;;5024467;28;20026;-62
2021/03/11 05:35:16;;;;;;;1.67;1.05;;;21.90;44.10;;;;;;5028385;28;20034;-63
2021/03/11 05:37:41;;;;;;;1.58;1.10;;;21.90;44.10;;;;;;5043126;28;20025;-63
2021/03/11 05:40:10;;;;;;;1.88;1.30;;;21.90;44.10;;;;;;5027611;28;20052;-66
2021/03/11 05:42:37;;;;;;;1.77;1.20;;;21.90;44.20;;;;;;5026976;28;20041;-65
2021/03/11 05:45:08;;;;;;;1.33;0.90;;;21.90;44.20;;;;;;5026212;28;20128;-63
2021/03/11 05:47:35;;;;;;;1.77;1.20;;;21.90;44.20;;;;;;5019268;28;20049;-63
2021/03/11 05:50:03;;;;;;;1.48;1.00;;;21.90;44.20;;;;;;5028304;28;20032;-62
2021/03/11 05:52:30;;;;;;;1.40;1.02;;;21.80;44.20;;;;;;5027704;28;20025;-63
2021/03/11 05:54:58;;;;;;;1.83;1.00;;;21.80;44.20;;;;;;5025164;28;20021;-62
2021/03/11 05:57:24;;;;;;;1.98;1.20;;;21.80;44.20;;;;;;5026166;28;20164;-62
2021/03/11 05:59:53;;;;;;;1.80;1.13;;;21.90;44.30;;;;;;5026076;28;20029;-63
2021/03/11 06:02:22;;;;;;;1.52;1.08;;;21.80;44.20;;;;;;5021547;28;20052;-64
2021/03/11 06:04:48;;;;;;;1.52;0.90;;;21.80;44.20;;;;;;5027387;28;20030;-66
2021/03/11 06:07:14;;;;;;;2.78;1.10;;;21.90;44.30;;;;;;5028553;28;20033;-64
2021/03/11 06:09:40;;;;;;;2.40;1.00;;;21.80;44.30;;;;;;5029200;28;20100;-63
2021/03/11 06:12:08;;;;;;;1.63;1.10;;;21.80;44.30;;;;;;5042201;28;20033;-64
2021/03/11 06:14:37;;;;;;;1.58;1.10;;;21.80;44.30;;;;;;5024490;28;20479;-64
2021/03/11 06:17:07;;;;;;;1.70;1.10;;;21.80;44.30;;;;;;5026764;28;20107;-62
2021/03/11 06:19:34;;;;;;;1.05;0.90;;;21.90;44.40;;;;;;5025795;28;20040;-62
2021/03/11 06:22:03;;;;;;;1.55;1.08;;;21.80;44.30;;;;;;5027102;28;20481;-64
2021/03/11 06:24:29;;;;;;;1.55;1.00;;;21.80;44.40;;;;;;5027749;28;20110;-63
2021/03/11 06:26:55;;;;;;;1.55;1.00;;;21.80;44.40;;;;;;5026393;28;20068;-63
2021/03/11 06:29:40;;;;;;;2.75;1.20;;;21.80;44.40;;;;;;5026346;28;20034;-63
2021/03/11 06:32:10;;;;;;;1.60;1.13;;;21.80;44.40;;;;;;5026697;28;20116;-64
2021/03/11 06:34:40;;;;;;;2.88;1.27;;;21.80;44.40;;;;;;5021228;28;20026;-72
2021/03/11 06:37:06;;;;;;;2.20;1.35;;;21.80;45.00;;;;;;5023396;28;20028;-75
2021/03/11 06:39:34;;;;;;;3.03;1.50;;;21.90;45.10;;;;;;5030157;28;20036;-71
2021/03/11 06:42:00;;;;;;;2.05;1.35;;;22.10;45.50;;;;;;5043964;28;20055;-71
2021/03/11 06:44:33;;;;;;;1.88;1.10;;;22.20;44.20;;;;;;5028064;28;20044;-71
2021/03/11 06:47:01;;;;;;;1.90;1.10;;;22.20;44.10;;;;;;5022122;28;20072;-72
2021/03/11 06:49:27;;;;;;;1.63;1.10;;;22.20;44.10;;;;;;5039239;28;20087;-73
2021/03/11 06:52:14;;;;;;;1.55;1.08;;;22.20;44.10;;;;;;5027217;28;20038;-71
2021/03/11 06:55:00;;;;;;;1.48;1.02;;;22.20;44.10;;;;;;5026353;28;20056;-70
2021/03/11 06:57:34;;;;;;;2.00;1.27;;;22.20;44.10;;;;;;5027834;28;20056;-70
2021/03/11 07:00:06;;;;;;;2.85;1.20;;;22.20;44.40;;;;;;5029561;28;20025;-69
2021/03/11 07:02:32;;;;;;;1.50;1.10;;;22.30;44.40;;;;;;5018048;28;20124;-69
2021/03/11 07:05:12;;;;;;;1.88;1.08;;;22.40;43.90;;;;;;5016490;28;20396;-69
2021/03/11 07:07:37;;;;;;;1.77;1.10;;;22.40;43.80;;;;;;5018807;28;20036;-69
2021/03/11 07:10:04;;;;;;;1.70;1.20;;;22.40;43.80;;;;;;5022245;28;20041;-68
2021/03/11 07:12:49;;;;;;;1.38;1.08;;;22.40;43.80;;;;;;5026266;28;20028;-68
2021/03/11 07:15:16;;;;;;;1.63;1.30;;;22.40;43.80;;;;;;5025301;28;20025;-71
2021/03/11 07:17:42;;;;;;;1.40;1.10;;;22.40;43.70;;;;;;5028306;28;20025;-71
2021/03/11 07:20:08;;;;;;;2.13;1.15;;;22.40;44.10;;;;;;5027107;28;20033;-69
2021/03/11 07:22:34;;;;;;;1.33;1.05;;;22.50;43.70;;;;;;5025930;28;20041;-73
2021/03/11 07:25:00;;;;;;;1.55;1.13;;;22.60;43.50;;;;;;5024792;28;20182;-68
2021/03/11 07:27:38;;;;;;;1.95;1.25;;;22.60;43.40;;;;;;5031350;28;20027;-70
2021/03/11 07:30:05;;;;;;;1.27;1.00;;;22.60;43.40;;;;;;5027487;28;20021;-70
2021/03/11 07:32:35;;;;;;;1.40;1.10;;;22.60;43.40;;;;;;5030723;28;20048;-72
2021/03/11 07:35:02;;;;;;;1.90;1.10;;;22.60;43.40;;;;;;5031449;28;20029;-72
2021/03/11 07:37:28;;;;;;;2.35;1.35;;;22.60;43.40;;;;;;5030455;28;20431;-70
2021/03/11 07:39:58;;;;;;;2.13;1.38;;;22.70;44.00;;;;;;5031159;28;20030;-64
2021/03/11 07:42:24;;;;;;;1.38;0.95;;;22.80;43.40;;;;;;5024797;28;20021;-69
2021/03/11 07:44:51;;;;;;;1.63;1.05;;;22.80;43.30;;;;;;5028536;28;20052;-73
2021/03/11 07:47:18;;;;;;;1.40;1.00;;;22.80;43.10;;;;;;5012577;28;20018;-72
2021/03/11 07:49:44;;;;;;;1.60;1.10;;;22.80;43.10;;;;;;5026698;28;20099;-69
2021/03/11 07:52:11;;;;;;;1.73;1.10;;;22.80;43.10;;;;;;5030054;28;20530;-69
2021/03/11 07:54:37;;;;;;;1.90;1.10;;;22.80;43.00;;;;;;5028594;28;20032;-70
2021/03/11 07:57:03;;;;;;;1.60;1.10;;;22.80;43.10;;;;;;5029546;28;20043;-71
2021/03/11 07:59:30;;;;;;;1.60;1.10;;;22.90;43.20;;;;;;5029202;28;20034;-71
2021/03/11 08:02:14;;;;;;;1.90;1.10;;;23.00;43.00;;;;;;5029056;28;20060;-71
2021/03/11 08:04:43;;;;;;;1.77;1.17;;;23.00;42.90;;;;;;5029955;28;20528;-69
2021/03/11 08:07:15;;;;;;;1.55;1.05;;;23.00;42.80;;;;;;5013435;28;20460;-69
2021/03/11 08:09:41;;;;;;;1.38;1.10;;;23.00;42.70;;;;;;5030961;28;20088;-69
2021/03/11 08:12:33;;;;;;;1.58;1.08;;;23.00;42.70;;;;;;5029588;28;20029;-72
2021/03/11 08:15:01;;;;;;;1.38;0.95;;;23.00;42.60;;;;;;5019371;28;20041;-72
2021/03/11 08:17:40;;;;;;;1.85;1.10;;;23.00;43.50;;;;;;5030171;28;20383;-73
2021/03/11 08:20:31;;;;;;;1.40;1.02;;;23.10;42.70;;;;;;5029690;28;20045;-71
2021/03/11 08:22:57;;;;;;;1.25;0.90;;;23.10;42.50;;;;;;5030472;28;20041;-70
2021/03/11 08:25:40;;;;;;;1.40;1.00;;;23.10;42.50;;;;;;5029621;28;20025;-66
2021/03/11 08:28:09;;;;;;;1.17;0.82;;;23.10;42.40;;;;;;5031964;28;20021;-72
2021/03/11 08:30:40;;;;;;;1.35;0.90;;;23.10;42.50;;;;;;5028722;28;20439;-70
2021/03/11 08:33:19;;;;;;;1.30;1.02;;;23.10;42.80;;;;;;5031972;28;20045;-71
2021/03/11 08:35:50;;;;;;;1.30;0.90;;;23.10;43.50;;;;;;5029604;28;20041;-71
2021/03/11 08:38:21;;;;;;;1.27;1.00;;;23.10;43.10;;;;;;5032956;28;20021;-72
2021/03/11 08:40:57;;;;;;;1.15;0.85;;;23.10;43.30;;;;;;5031127;28;20662;-68
2021/03/11 08:43:41;;;;;;;0.95;0.80;;;23.20;43.50;;;;;;5031873;28;20036;-70
2021/03/11 08:46:11;;;;;;;1.42;0.90;;;23.20;43.60;;;;;;5027911;28;20017;-70
2021/03/11 08:48:58;;;;;;;1.00;0.80;;;23.20;43.80;;;;;;5029285;28;20372;-70
2021/03/11 08:51:23;;;;;;;0.90;0.80;;;23.30;43.90;;;;;;5024851;28;20037;-68
2021/03/11 08:54:21;;;;;;;1.10;0.90;;;23.30;44.00;;;;;;5027728;28;20045;-72
2021/03/11 08:56:46;;;;;;;1.52;0.80;;;23.30;44.10;;;;;;5019989;28;20057;-68
2021/03/11 08:59:15;;;;;;;1.00;0.90;;;23.30;44.10;;;;;;5030443;28;20127;-69
2021/03/11 09:01:51;;;;;;;0.70;0.70;;;23.40;44.10;;;;;;5023236;28;20052;-70
2021/03/11 09:04:20;;;;;;;1.08;0.90;;;23.40;44.00;;;;;;5028134;28;20552;-69
2021/03/11 09:06:59;;;;;;;0.90;0.80;;;23.40;44.10;;;;;;5030006;28;20030;-69
2021/03/11 09:09:31;;;;;;;1.00;0.80;;;23.50;44.30;;;;;;5028532;28;20032;-67
2021/03/11 09:11:57;;;;;;;1.30;0.90;;;23.50;44.30;;;;;;5029304;28;20029;-66
2021/03/11 09:14:25;;;;;;;1.80;1.05;;;23.50;44.40;;;;;;5027248;28;20044;-67
2021/03/11 09:16:51;;;;;;;0.90;0.80;;;23.60;44.70;;;;;;5040905;28;20028;-70
2021/03/11 09:19:17;;;;;;;1.73;0.90;;;23.60;44.80;;;;;;5035569;28;20113;-67
2021/03/11 09:21:43;;;;;;;1.67;0.80;;;23.60;44.90;;;;;;5026404;28;20044;-68
2021/03/11 09:24:17;;;;;;;1.10;0.80;;;23.60;44.70;;;;;;5029134;28;21629;-70
2021/03/11 09:26:43;;;;;;;1.05;0.80;;;23.70;45.10;;;;;;5028836;28;20511;-68
2021/03/11 09:29:09;;;;;;;1.10;0.80;;;23.70;45.10;;;;;;5028552;28;20030;-67
2021/03/11 09:31:35;;;;;;;1.38;0.90;;;23.70;45.10;;;;;;5027318;28;20037;-70
2021/03/11 09:34:02;;;;;;;1.13;0.80;;;23.70;45.10;;;;;;5036342;28;20104;-69
2021/03/11 09:36:28;;;;;;;1.30;0.80;;;23.80;45.10;;;;;;5029804;28;20034;-68
2021/03/11 09:39:04;;;;;;;0.95;0.80;;;23.80;45.00;;;;;;5027434;28;20048;-65
2021/03/11 09:41:31;;;;;;;0.60;0.60;;;23.80;45.00;;;;;;5029245;28;20104;-69
2021/03/11 09:44:02;;;;;;;0.95;0.70;;;23.80;44.90;;;;;;5027210;28;20051;-69
2021/03/11 09:46:28;;;;;;;0.90;0.70;;;23.80;45.00;;;;;;5024791;28;20025;-67
2021/03/11 09:48:58;;;;;;;1.02;0.77;;;23.80;44.90;;;;;;5042681;28;20632;-67
2021/03/11 09:51:29;;;;;;;1.00;0.82;;;23.90;44.90;;;;;;5028121;28;20029;-69
2021/03/11 09:54:04;;;;;;;0.85;0.70;;;23.90;44.80;;;;;;5025142;28;20095;-70
2021/03/11 09:56:33;;;;;;;1.10;0.70;;;23.90;44.90;;;;;;5038712;28;20119;-71
2021/03/11 09:59:02;;;;;;;0.80;0.70;;;23.90;45.00;;;;;;5025783;28;20033;-72
2021/03/11 10:01:31;;;;;;;1.00;0.90;;;23.90;44.30;;;;;;5024106;28;20042;-69
2021/03/11 10:03:57;;;;;;;0.90;0.80;;;23.90;43.00;;;;;;5027717;28;20034;-65
2021/03/11 10:06:24;;;;;;;1.40;0.95;;;23.90;42.10;;;;;;5027729;28;20519;-70
2021/03/11 10:08:59;;;;;;;1.48;0.93;;;23.90;41.90;;;;;;5032801;28;20041;-68
2021/03/11 10:11:33;;;;;;;1.67;1.00;;;23.90;41.40;;;;;;5028089;28;20037;-71
2021/03/11 10:14:03;;;;;;;1.30;0.90;;;23.90;41.30;;;;;;5030607;28;20032;-67
2021/03/11 10:16:31;;;;;;;1.40;0.95;;;23.90;41.20;;;;;;5027112;28;20067;-68
2021/03/11 10:19:00;;;;;;;1.20;0.90;;;23.90;41.10;;;;;;5028735;28;20033;-67
2021/03/11 10:21:26;;;;;;;1.17;0.80;;;23.90;41.00;;;;;;5025873;28;20029;-69
2021/03/11 10:23:52;;;;;;;1.38;1.00;;;23.90;41.00;;;;;;5021691;28;20037;-68
2021/03/11 10:26:22;;;;;;;2.53;0.93;;;23.90;41.00;;;;;;5026785;28;20077;-68
2021/03/11 10:28:51;;;;;;;1.50;0.95;;;23.90;41.30;;;;;;5026229;28;20387;-70
2021/03/11 10:31:17;;;;;;;1.35;0.90;;;23.90;41.30;;;;;;5026212;28;20056;-71
2021/03/11 10:33:43;;;;;;;0.82;0.75;;;23.90;41.30;;;;;;5018313;28;20053;-69
2021/03/11 10:36:19;;;;;;;2.03;0.90;;;23.90;41.20;;;;;;5029081;28;20554;-69
2021/03/11 10:39:07;;;;;;;1.45;0.90;;;23.90;41.20;;;;;;5020497;28;20029;-67
2021/03/11 10:41:33;;;;;;;1.50;0.90;;;23.90;41.20;;;;;;5034284;28;20040;-68
2021/03/11 10:44:14;;;;;;;1.02;0.80;;;23.90;41.30;;;;;;5026446;28;20390;-71
2021/03/11 10:46:43;;;;;;;1.02;0.70;;;23.90;41.20;;;;;;5025996;28;20109;-68
2021/03/11 10:49:11;;;;;;;1.42;0.90;;;23.90;41.20;;;;;;5027198;28;20025;-65
2021/03/11 10:51:38;;;;;;;1.05;0.90;;;23.90;41.30;;;;;;5026923;28;20499;-66
2021/03/11 10:54:04;;;;;;;1.00;0.75;;;23.90;41.20;;;;;;5027343;28;20033;-66
2021/03/11 10:56:30;;;;;;;1.08;0.73;;;23.90;41.30;;;;;;5028276;28;20048;-69
2021/03/11 10:59:07;;;;;;;0.88;0.70;;;23.90;41.20;;;;;;5028728;28;20029;-65
2021/03/11 11:01:34;;;;;;;0.82;0.80;;;23.90;41.30;;;;;;5030103;28;20040;-67
2021/03/11 11:04:00;;;;;;;0.82;0.73;;;23.90;41.30;;;;;;5029791;28;20030;-67
2021/03/11 11:06:29;;;;;;;1.17;0.80;;;23.90;41.20;;;;;;5030446;28;20027;-70
2021/03/11 11:08:55;;;;;;;1.02;0.80;;;23.90;41.20;;;;;;5030000;28;20033;-69
2021/03/11 11:11:21;;;;;;;1.60;1.00;;;23.90;41.20;;;;;;5030612;28;20481;-66
2021/03/11 11:13:48;;;;;;;0.80;0.60;;;23.90;41.20;;;;;;5029876;28;20407;-69
2021/03/11 11:16:14;;;;;;;1.25;0.77;;;23.90;41.90;;;;;;5031034;28;20056;-66
2021/03/11 11:18:41;;;;;;;1.15;0.90;;;23.90;41.50;;;;;;5030539;28;20075;-59
2021/03/11 11:21:08;;;;;;;1.10;0.73;;;23.90;41.50;;;;;;5029425;28;20021;-61
2021/03/11 11:23:34;;;;;;;1.45;0.80;;;23.90;41.50;;;;;;5029804;28;20068;-59
2021/03/11 11:26:00;;;;;;;0.70;0.70;;;23.90;41.60;;;;;;5030093;28;20114;-59
2021/03/11 11:28:26;;;;;;;1.33;0.88;;;24.00;41.50;;;;;;5028408;28;20344;-59
2021/03/11 11:30:52;;;;;;;1.15;0.90;;;24.00;41.40;;;;;;5029426;28;20092;-59
2021/03/11 11:33:17;;;;;;;1.20;0.82;;;24.00;41.40;;;;;;5028871;28;20083;-60
2021/03/11 11:35:43;;;;;;;0.95;0.80;;;23.90;41.20;;;;;;5031300;28;20076;-62
2021/03/11 11:38:09;;;;;;;0.90;0.80;;;23.90;41.20;;;;;;5031789;28;20034;-57
2021/03/11 11:40:35;;;;;;;1.08;0.80;;;24.00;41.20;;;;;;5028985;28;20029;-56
2021/03/11 11:43:01;;;;;;;1.00;0.80;;;24.00;41.20;;;;;;5030270;28;20463;-60
2021/03/11 11:45:28;;;;;;;0.82;0.75;;;24.00;41.20;;;;;;5029589;28;20116;-59
2021/03/11 11:47:54;;;;;;;1.40;0.90;;;24.00;41.30;;;;;;5031173;28;20360;-60
2021/03/11 11:50:19;;;;;;;1.05;0.90;;;24.00;41.20;;;;;;5033635;28;20033;-58
2021/03/11 11:52:45;;;;;;;1.40;0.80;;;24.00;41.30;;;;;;5029851;28;20056;-59
2021/03/11 11:55:12;;;;;;;1.25;0.80;;;24.00;41.50;;;;;;5029334;28;20096;-59
2021/03/11 11:57:41;;;;;;;1.33;0.82;;;24.00;41.30;;;;;;5030885;28;20125;-57
2021/03/11 12:00:13;;;;;;;0.70;0.70;;;24.00;41.40;;;;;;5021545;28;20455;-65
2021/03/11 12:02:39;;;;;;;0.85;0.70;;;24.10;41.50;;;;;;5029118;28;20033;-62
2021/03/11 12:05:05;;;;;;;1.20;0.80;;;24.10;41.60;;;;;;5027447;28;20029;-56
2021/03/11 12:07:31;;;;;;;0.95;0.80;;;24.10;41.40;;;;;;5036944;28;20029;-58
2021/03/11 12:09:58;;;;;;;0.77;0.70;;;24.10;41.40;;;;;;5028735;28;20045;-60
2021/03/11 12:12:24;;;;;;;1.48;0.90;;;24.10;41.30;;;;;;5029603;28;20029;-60
2021/03/11 12:14:50;;;;;;;1.02;0.80;;;24.10;41.40;;;;;;5022094;28;20462;-62
2021/03/11 12:17:16;;;;;;;1.10;0.80;;;24.10;41.40;;;;;;5029423;28;20026;-58
2021/03/11 12:19:41;;;;;;;0.90;0.70;;;24.10;41.20;;;;;;5027447;28;20014;-61
2021/03/11 12:22:07;;;;;;;0.80;0.70;;;24.10;41.20;;;;;;5028766;28;20033;-57
2021/03/11 12:24:32;;;;;;;1.27;0.82;;;24.10;41.10;;;;;;5046017;28;20032;-58
2021/03/11 12:26:58;;;;;;;1.00;0.80;;;24.10;41.30;;;;;;5026294;28;20429;-59
2021/03/11 12:29:24;;;;;;;1.20;0.80;;;24.10;41.40;;;;;;5028157;28;20048;-59
2021/03/11 12:31:50;;;;;;;1.00;0.80;;;24.10;41.50;;;;;;5027881;28;20040;-60
2021/03/11 12:34:16;;;;;;;0.98;0.80;;;24.10;41.40;;;;;;5027486;28;20540;-61
2021/03/11 12:36:42;;;;;;;1.13;0.77;;;24.10;41.40;;;;;;5030009;28;20108;-58
2021/03/11 12:39:08;;;;;;;1.15;0.73;;;24.10;41.60;;;;;;5029694;28;20505;-62
2021/03/11 12:41:34;;;;;;;0.90;0.80;;;24.10;41.60;;;;;;5029581;28;20357;-62
2021/03/11 12:43:59;;;;;;;1.15;0.80;;;24.10;41.60;;;;;;5028614;28;20040;-62
2021/03/11 12:46:25;;;;;;;0.65;0.65;;;24.10;41.60;;;;;;5028565;28;20030;-59
2021/03/11 12:48:51;;;;;;;0.75;0.70;;;24.10;41.60;;;;;;5019775;28;20067;-60
2021/03/11 12:51:19;;;;;;;0.98;0.70;;;24.10;41.70;;;;;;5026760;28;20051;-60
2021/03/11 12:53:44;;;;;;;1.10;0.80;;;24.10;41.70;;;;;;5027036;28;20029;-61
2021/03/11 12:56:10;;;;;;;0.80;0.80;;;24.10;41.80;;;;;;5026880;28;20029;-57